createdAt,value
2022-10-15T00:04:38.423Z,101621.06
2022-10-15T00:09:37.651Z,101606.81
2022-10-15T00:14:35.691Z,101653.38
2022-10-15T00:19:35.976Z,101648.38
2022-10-15T00:24:35.320Z,101660.00
2022-10-15T00:29:34.025Z,101633.75
2022-10-15T00:34:34.305Z,101612.09
2022-10-15T00:39:39.378Z,101602.06
2022-10-15T00:45:03.754Z,101639.28
2022-10-15T00:50:17.557Z,101605.38
2022-10-15T00:55:45.067Z,101648.03
2022-10-15T01:00:46.342Z,101642.72
2022-10-15T01:05:48.210Z,101614.81
2022-10-15T01:11:29.416Z,101635.41
2022-10-15T01:16:41.378Z,101633.25
2022-10-15T01:22:00.693Z,101627.84
2022-10-15T01:27:39.927Z,101610.03
2022-10-15T01:32:52.302Z,101597.31
2022-10-15T01:38:02.927Z,101607.59
2022-10-15T01:43:05.021Z,101604.13
2022-10-15T01:48:27.422Z,101641.41
2022-10-15T01:53:31.006Z,101586.38
2022-10-15T01:58:39.170Z,101611.59
2022-10-15T02:04:05.437Z,101642.66
2022-10-15T02:09:27.138Z,101647.66
2022-10-15T02:14:39.272Z,101650.75
2022-10-15T02:20:10.760Z,101633.06
2022-10-15T02:25:14.482Z,101616.50
2022-10-15T02:30:22.581Z,101630.16
2022-10-15T02:35:25.594Z,101609.47
2022-10-15T02:40:30.932Z,101642.13
2022-10-15T02:45:34.200Z,101625.25
2022-10-15T02:50:35.330Z,101634.50
2022-10-15T02:55:33.753Z,101647.81
2022-10-15T03:00:35.571Z,101627.50
2022-10-15T03:05:37.467Z,101616.72
2022-10-15T03:10:39.988Z,101622.31
2022-10-15T03:15:42.285Z,101626.94
2022-10-15T03:20:45.640Z,101627.38
2022-10-15T03:25:47.576Z,101630.03
2022-10-15T03:30:54.645Z,101659.03
2022-10-15T03:35:54.530Z,101621.00
2022-10-15T03:40:55.177Z,101656.88
2022-10-15T03:46:03.558Z,101647.28
2022-10-15T03:51:18.647Z,101659.09
2022-10-15T03:56:31.096Z,101623.22
2022-10-15T04:01:54.526Z,101655.91
2022-10-15T04:07:02.507Z,101641.69
2022-10-15T04:12:14.593Z,101671.06
2022-10-15T04:22:59.434Z,101638.38
2022-10-15T04:28:05.865Z,101643.06
2022-10-15T04:33:10.630Z,101644.22
2022-10-15T04:38:56.455Z,101670.38
2022-10-15T04:44:24.459Z,101666.00
2022-10-15T04:49:33.288Z,101653.84
2022-10-15T05:00:57.668Z,101675.25
2022-10-15T05:06:26.493Z,101654.53
2022-10-15T05:17:48.263Z,101664.13
2022-10-15T05:22:51.000Z,101661.63
2022-10-15T05:33:28.283Z,101679.69
2022-10-15T05:38:29.998Z,101676.63
2022-10-15T05:43:37.367Z,101689.75
2022-10-15T05:48:51.413Z,101702.38
2022-10-15T05:54:00.372Z,101679.53
2022-10-15T05:59:05.837Z,101684.47
2022-10-15T06:04:07.197Z,101719.03
2022-10-15T06:09:15.803Z,101701.56
2022-10-15T06:14:21.225Z,101701.66
2022-10-15T06:19:30.899Z,101704.66
2022-10-15T06:24:35.563Z,101723.78
2022-10-15T06:29:53.190Z,101720.81
2022-10-15T06:34:52.913Z,101711.63
2022-10-15T06:40:10.701Z,101715.47
2022-10-15T06:45:15.879Z,101725.63
2022-10-15T06:50:21.217Z,101756.75
2022-10-15T06:55:20.938Z,101727.50
2022-10-15T07:00:22.242Z,101715.88
2022-10-15T07:05:24.317Z,101736.56
2022-10-15T07:10:24.764Z,101707.41
2022-10-15T07:15:23.945Z,101715.50
2022-10-15T07:20:26.660Z,101709.44
2022-10-15T07:25:30.809Z,101736.28
2022-10-15T07:30:33.309Z,101718.97
2022-10-15T07:35:35.143Z,101730.09
2022-10-15T07:40:37.071Z,101722.94
2022-10-15T07:45:39.726Z,101736.78
2022-10-15T07:50:43.762Z,101721.69
2022-10-15T07:55:46.319Z,101715.50
2022-10-15T08:00:46.725Z,101731.53
2022-10-15T08:06:02.053Z,101734.91
2022-10-15T08:11:14.779Z,101722.19
2022-10-15T08:16:17.263Z,101746.88
2022-10-15T08:21:29.709Z,101732.13
2022-10-15T08:26:27.724Z,101732.50
2022-10-15T08:31:41.586Z,101765.84
2022-10-15T08:36:51.749Z,101738.16
2022-10-15T08:42:24.562Z,101735.47
2022-10-15T08:47:52.934Z,101748.81
2022-10-15T08:52:55.186Z,101741.38
2022-10-15T08:58:00.982Z,101708.94
2022-10-15T09:03:47.780Z,101740.44
2022-10-15T09:09:01.092Z,101733.94
2022-10-15T09:13:59.121Z,101726.16
2022-10-15T09:18:59.854Z,101740.53
2022-10-15T09:24:03.073Z,101739.56
2022-10-15T09:29:33.549Z,101759.91
2022-10-15T09:34:42.541Z,101724.22
2022-10-15T09:40:02.754Z,101753.88
2022-10-15T09:45:05.051Z,101707.97
2022-10-15T09:50:10.963Z,101742.03
2022-10-15T09:55:35.748Z,101752.75
2022-10-15T10:01:01.849Z,101747.84
2022-10-15T10:06:11.988Z,101713.19
2022-10-15T10:11:21.083Z,101692.44
2022-10-15T10:16:21.499Z,101731.44
2022-10-15T10:21:50.645Z,101682.66
2022-10-15T10:26:51.311Z,101682.72
2022-10-15T10:31:59.567Z,101724.72
2022-10-15T10:36:59.157Z,101693.22
2022-10-15T10:42:02.054Z,101692.75
2022-10-15T10:47:24.271Z,101701.75
2022-10-15T10:52:35.439Z,101698.53
2022-10-15T10:57:47.371Z,101699.13
2022-10-15T11:02:48.453Z,101688.09
2022-10-15T11:08:20.709Z,101653.84
2022-10-15T11:14:01.803Z,101685.50
2022-10-15T11:19:54.539Z,101667.50
2022-10-15T11:25:21.650Z,101691.25
2022-10-15T11:30:34.366Z,101625.59
2022-10-15T11:35:54.465Z,101643.78
2022-10-15T11:41:00.895Z,101677.91
2022-10-15T11:46:12.131Z,101665.78
2022-10-15T11:51:17.523Z,101660.69
2022-10-15T11:56:39.478Z,101651.72
2022-10-15T12:01:49.486Z,101611.72
2022-10-15T12:06:51.776Z,101612.97
2022-10-15T12:12:23.793Z,101629.00
2022-10-15T12:17:35.964Z,101618.41
2022-10-15T12:22:45.149Z,101624.31
2022-10-15T12:27:43.565Z,101632.88
2022-10-15T12:32:43.942Z,101647.69
2022-10-15T12:37:48.951Z,101646.97
2022-10-15T12:43:01.610Z,101621.25
2022-10-15T12:48:07.576Z,101667.88
2022-10-15T12:53:07.398Z,101621.88
2022-10-15T12:58:38.354Z,101662.91
2022-10-15T13:03:39.666Z,101614.75
2022-10-15T13:08:38.758Z,101623.78
2022-10-15T13:13:43.733Z,101630.53
2022-10-15T13:18:49.685Z,101652.06
2022-10-15T13:23:49.810Z,101656.56
2022-10-15T13:28:52.993Z,101674.59
2022-10-15T13:33:57.982Z,101658.53
2022-10-15T13:39:01.733Z,101681.06
2022-10-15T13:44:03.213Z,101659.44
2022-10-15T13:49:11.899Z,101647.16
2022-10-15T13:54:23.953Z,101639.53
2022-10-15T13:59:23.356Z,101642.06
2022-10-15T14:04:26.834Z,101660.25
2022-10-15T14:09:34.849Z,101629.81
2022-10-15T14:14:48.159Z,101666.41
2022-10-15T14:20:26.917Z,101631.34
2022-10-15T14:25:35.982Z,101635.72
2022-10-15T14:30:36.911Z,101601.44
2022-10-15T14:35:40.980Z,101644.06
2022-10-15T14:41:06.477Z,101651.25
2022-10-15T14:46:08.154Z,101612.38
2022-10-15T14:51:14.949Z,101597.81
2022-10-15T14:56:23.422Z,101613.53
2022-10-15T15:01:22.552Z,101599.91
2022-10-15T15:06:21.363Z,101609.78
2022-10-15T15:11:23.558Z,101604.78
2022-10-15T15:16:22.216Z,101612.41
2022-10-15T15:21:24.118Z,101598.28
2022-10-15T15:26:25.253Z,101625.88
2022-10-15T15:31:24.483Z,101631.50
2022-10-15T15:36:26.914Z,101619.72
2022-10-15T15:41:26.532Z,101612.88
2022-10-15T15:46:26.877Z,101619.34
2022-10-15T15:51:30.895Z,101666.88
2022-10-15T16:01:47.061Z,101643.56
2022-10-15T16:06:50.721Z,101657.50
2022-10-15T16:11:55.646Z,101656.31
2022-10-15T16:16:55.316Z,101648.53
2022-10-15T16:21:58.424Z,101667.47
2022-10-15T16:26:58.340Z,101680.63
2022-10-15T16:31:56.771Z,101675.09
2022-10-15T16:36:56.288Z,101714.53
2022-10-15T16:41:59.066Z,101701.25
2022-10-15T16:47:00.682Z,101674.88
2022-10-15T16:52:00.789Z,101671.75
2022-10-15T16:57:01.894Z,101706.06
2022-10-15T17:02:04.317Z,101727.72
2022-10-15T17:07:03.595Z,101710.16
2022-10-15T17:12:02.050Z,101718.81
2022-10-15T17:17:01.285Z,101741.31
2022-10-15T17:22:02.211Z,101737.53
2022-10-15T17:27:08.527Z,101744.91
2022-10-15T17:32:07.627Z,101729.59
2022-10-15T17:37:11.190Z,101727.28
2022-10-15T17:42:15.813Z,101740.53
2022-10-15T17:47:14.313Z,101719.09
2022-10-15T17:52:19.009Z,101730.94
2022-10-15T17:57:19.840Z,101728.28
2022-10-15T18:02:20.090Z,101755.19
2022-10-15T18:07:20.282Z,101794.94
2022-10-15T18:12:22.935Z,101770.53
2022-10-15T18:17:22.069Z,101767.22
2022-10-15T18:22:25.798Z,101755.97
2022-10-15T18:27:28.175Z,101788.31
2022-10-15T18:32:27.867Z,101766.19
2022-10-15T18:37:34.388Z,101789.53
2022-10-15T18:42:34.107Z,101753.44
2022-10-15T18:47:41.470Z,101800.53
2022-10-15T18:52:44.126Z,101821.81
2022-10-15T18:57:49.389Z,101802.34
2022-10-15T19:02:51.807Z,101778.03
2022-10-15T19:08:00.262Z,101770.97
2022-10-15T19:13:00.710Z,101794.00
2022-10-15T19:18:06.075Z,101796.03
2022-10-15T19:23:08.133Z,101846.06
2022-10-15T19:28:12.028Z,101814.06
2022-10-15T19:33:18.126Z,101839.34
2022-10-15T19:38:34.313Z,101789.59
2022-10-15T19:43:37.364Z,101797.19
2022-10-15T19:48:36.726Z,101786.75
2022-10-15T19:53:39.024Z,101809.34
2022-10-15T19:58:37.655Z,101796.00
2022-10-15T20:03:52.459Z,101824.34
2022-10-15T20:08:52.350Z,101854.44
2022-10-15T20:13:54.018Z,101824.47
2022-10-15T20:18:56.600Z,101813.09
2022-10-15T20:24:05.222Z,101839.59
2022-10-15T20:29:05.197Z,101813.66
2022-10-15T20:34:08.193Z,101867.38
2022-10-15T20:39:10.030Z,101866.69
2022-10-15T20:44:18.934Z,101840.31
2022-10-15T20:49:20.723Z,101863.69
2022-10-15T20:54:19.376Z,101828.44
2022-10-15T20:59:21.040Z,101814.69
2022-10-15T21:04:22.313Z,101809.06
2022-10-15T21:09:24.082Z,101845.34
2022-10-15T21:14:22.506Z,101836.81
2022-10-15T21:19:25.637Z,101868.56
2022-10-15T21:24:28.099Z,101827.88
2022-10-15T21:29:28.530Z,101859.13
2022-10-15T21:34:28.682Z,101845.53
2022-10-15T21:39:27.576Z,101816.94
2022-10-15T21:44:27.380Z,101834.25
2022-10-15T21:49:26.802Z,101852.81
2022-10-15T21:54:27.415Z,101838.53
2022-10-15T21:59:30.069Z,101820.81
2022-10-15T22:04:28.065Z,101831.94
2022-10-15T22:09:30.931Z,101866.75
2022-10-15T22:14:30.311Z,101854.94
2022-10-15T22:19:34.000Z,101839.63
2022-10-15T22:24:34.206Z,101878.59
2022-10-15T22:29:34.361Z,101873.16
2022-10-15T22:34:35.643Z,101867.69
2022-10-15T22:39:35.516Z,101860.75
2022-10-15T22:44:38.108Z,101862.38
2022-10-15T22:49:35.688Z,101882.31
2022-10-15T22:54:34.673Z,101899.25
2022-10-15T22:59:33.396Z,101899.28
2022-10-15T23:04:33.081Z,101910.13
2022-10-15T23:09:34.416Z,101941.53
2022-10-15T23:14:37.567Z,101904.84
2022-10-15T23:19:36.321Z,101897.03
2022-10-15T23:24:37.910Z,101912.31
2022-10-15T23:29:37.691Z,101932.41
2022-10-15T23:34:37.826Z,101875.84
2022-10-15T23:39:38.104Z,101902.13
2022-10-15T23:44:40.084Z,101902.94
2022-10-15T23:49:40.906Z,101917.06
2022-10-15T23:54:43.193Z,101899.41
2022-10-15T23:59:45.591Z,101928.56
